Time;durP1;ratioP1;P1;durP2;ratioP2;P2;SDS_P1;SDS_P2;PMS_P1;PMS_P2;Temp;Humidity;BMP_temperature;BMP_pressure;BME280_temperature;BME280_humidity;BME280_pressure;Samples;Min_cycle;Max_cycle;Signal;HPM_P1;HPM_P2
2021/08/08 00:01:36;;;;;;;1.70;1.17;;;;;;;16.34;66.92;93141.97;5031205;28;20045;-87
2021/08/08 00:04:03;;;;;;;4.07;1.17;;;;;;;16.48;67.13;93172.69;5031393;28;20057;-86
2021/08/08 00:06:30;;;;;;;1.83;1.13;;;;;;;16.59;66.90;93186.50;5030752;28;20046;-86
2021/08/08 00:08:57;;;;;;;5.32;1.52;;;;;;;16.36;66.88;93155.47;5031158;28;20049;-87
2021/08/08 00:11:24;;;;;;;3.55;1.55;;;;;;;16.36;66.57;93139.94;5031370;28;20052;-86
2021/08/08 00:13:52;;;;;;;3.33;1.30;;;;;;;16.47;66.96;93164.09;5030724;28;20052;-85
2021/08/08 00:16:19;;;;;;;2.78;1.38;;;;;;;16.51;66.95;93198.09;5038431;28;20057;-88
2021/08/08 00:18:46;;;;;;;2.35;1.35;;;;;;;16.49;67.09;93184.63;5039411;28;20045;-84
2021/08/08 00:21:13;;;;;;;5.93;1.70;;;;;;;16.49;67.49;93180.22;5030986;28;20045;-84
2021/08/08 00:23:40;;;;;;;2.10;1.38;;;;;;;16.52;66.82;93177.13;5030885;28;20067;-84
2021/08/08 00:26:06;;;;;;;3.40;1.10;;;;;;;16.54;66.29;93180.22;5030417;28;20049;-84
2021/08/08 00:28:33;;;;;;;2.67;1.00;;;;;;;16.56;65.68;93192.97;5030422;28;20562;-84
2021/08/08 00:31:01;;;;;;;1.80;1.00;;;;;;;16.52;65.89;93186.72;5030692;28;20057;-84
2021/08/08 00:33:28;;;;;;;2.25;1.20;;;;;;;16.40;66.41;93190.22;5030474;28;20049;-84
2021/08/08 00:35:55;;;;;;;2.65;1.20;;;;;;;16.21;67.34;93195.00;5030447;28;20045;-84
2021/08/08 00:38:22;;;;;;;1.83;1.08;;;;;;;16.15;67.74;93195.97;5030624;28;20057;-84
2021/08/08 00:40:49;;;;;;;4.93;1.30;;;;;;;16.08;67.72;93188.41;5030692;28;20049;-84
2021/08/08 00:43:15;;;;;;;2.42;1.30;;;;;;;15.97;67.86;93171.19;5030532;28;20499;-84
2021/08/08 00:45:42;;;;;;;3.40;1.40;;;;;;;15.93;68.50;93181.25;5030477;28;20050;-84
2021/08/08 00:48:10;;;;;;;5.30;1.60;;;;;;;15.86;69.16;93178.03;5030171;28;20075;-84
2021/08/08 00:50:38;;;;;;;4.05;1.15;;;;;;;15.95;68.99;93192.16;5030244;28;20057;-84
2021/08/08 00:53:07;;;;;;;4.57;1.42;;;;;;;15.99;68.87;93198.41;5030391;28;20046;-84
2021/08/08 00:55:33;;;;;;;5.60;1.27;;;;;;;15.89;69.28;93201.63;5030292;28;20397;-83
2021/08/08 00:58:00;;;;;;;1.95;1.23;;;;;;;15.86;69.50;93194.38;5030209;28;20072;-84
2021/08/08 01:00:27;;;;;;;7.82;1.50;;;;;;;15.85;69.77;93195.41;5029765;28;20060;-83
2021/08/08 01:02:58;;;;;;;3.40;1.65;;;;;;;15.88;69.33;93200.06;5030147;28;20041;-83
2021/08/08 01:05:30;;;;;;;4.45;1.40;;;;;;;15.85;69.57;93197.19;5029761;28;20045;-84
2021/08/08 01:08:04;;;;;;;3.83;1.17;;;;;;;15.84;69.60;93204.16;5029665;28;20050;-84
2021/08/08 01:10:32;;;;;;;3.78;1.20;;;;;;;15.81;69.71;93207.25;5029804;28;20057;-85
2021/08/08 01:13:00;;;;;;;4.82;1.90;;;;;;;15.73;69.06;93190.34;5030607;28;20057;-86
2021/08/08 01:15:27;;;;;;;3.17;1.35;;;;;;;15.76;69.60;93195.03;5029717;28;20480;-83
2021/08/08 01:17:54;;;;;;;7.22;1.30;;;;;;;15.78;69.38;93202.53;5029567;28;20444;-83
2021/08/08 01:20:22;;;;;;;5.63;1.35;;;;;;;15.75;68.95;93197.88;5029933;28;20408;-83
2021/08/08 01:22:53;;;;;;;3.60;1.10;;;;;;;15.84;68.64;93203.41;5029655;28;20049;-84
2021/08/08 01:25:22;;;;;;;4.38;1.30;;;;;;;15.81;68.49;93196.09;5029104;28;20487;-84
2021/08/08 01:27:52;;;;;;;6.13;1.33;;;;;;;15.59;68.59;93166.63;5029446;28;20049;-84
2021/08/08 01:30:19;;;;;;;6.03;1.20;;;;;;;15.89;68.51;93209.41;5029416;28;20096;-85
2021/08/08 01:32:46;;;;;;;4.88;1.27;;;;;;;15.79;68.97;93216.28;5029332;28;20060;-85
2021/08/08 01:35:14;;;;;;;4.35;1.30;;;;;;;15.69;69.50;93212.53;5029446;28;20099;-85
2021/08/08 01:37:40;;;;;;;3.47;1.30;;;;;;;15.46;70.29;93195.47;5029513;28;20108;-85
2021/08/08 01:40:12;;;;;;;3.92;1.60;;;;;;;15.49;70.43;93213.88;5029130;28;20054;-85
2021/08/08 01:42:43;;;;;;;3.75;1.45;;;;;;;15.51;70.45;93213.66;5029614;28;20060;-87
2021/08/08 01:45:13;;;;;;;3.55;1.85;;;;;;;15.46;70.08;93201.41;5029102;28;20049;-86
2021/08/08 01:47:44;;;;;;;2.88;1.45;;;;;;;15.32;70.06;93179.50;5029243;28;20045;-85
2021/08/08 01:50:12;;;;;;;5.88;1.52;;;;;;;15.46;69.76;93195.47;5029294;28;20045;-85
2021/08/08 01:52:41;;;;;;;3.75;1.40;;;;;;;15.50;70.00;93218.03;5029260;28;20045;-83
2021/08/08 01:55:09;;;;;;;5.75;2.13;;;;;;;15.49;70.11;93220.84;5029313;28;20053;-83
2021/08/08 01:57:37;;;;;;;1.92;1.10;;;;;;;15.46;70.01;93211.75;5029093;28;20045;-83
2021/08/08 02:00:07;;;;;;;6.90;1.30;;;;;;;15.35;70.56;93204.88;5029176;28;20076;-83
2021/08/08 02:02:34;;;;;;;5.22;1.33;;;;;;;15.24;70.66;93196.22;5029503;28;20053;-83
2021/08/08 02:05:01;;;;;;;2.45;1.50;;;;;;;15.27;70.58;93202.72;5029494;28;20073;-83
2021/08/08 02:07:27;;;;;;;10.15;1.35;;;;;;;15.33;70.88;93220.66;5028954;28;20053;-83
2021/08/08 02:09:54;;;;;;;4.70;1.42;;;;;;;15.28;70.74;93207.63;5029180;28;20054;-83
2021/08/08 02:12:22;;;;;;;7.53;1.80;;;;;;;15.28;70.35;93206.88;5029119;28;20099;-83
2021/08/08 02:14:48;;;;;;;3.25;1.50;;;;;;;15.07;70.46;93175.53;5029179;28;20493;-83
2021/08/08 02:17:19;;;;;;;7.47;1.55;;;;;;;15.23;70.76;93213.53;5029317;28;20049;-83
2021/08/08 02:19:45;;;;;;;3.40;1.63;;;;;;;15.14;70.97;93201.25;5029241;28;20049;-83
2021/08/08 02:22:12;;;;;;;6.10;2.53;;;;;;;15.31;70.75;93230.47;5029369;28;20053;-83
2021/08/08 02:24:39;;;;;;;8.35;5.28;;;;;;;15.28;70.80;93235.34;5029270;28;20049;-83
2021/08/08 02:27:06;;;;;;;6.60;5.60;;;;;;;15.02;71.47;93212.47;5028853;28;20436;-84
2021/08/08 02:29:33;;;;;;;7.18;4.22;;;;;;;14.92;72.17;93210.53;5029132;28;20058;-84
2021/08/08 02:32:00;;;;;;;6.15;2.90;;;;;;;15.00;72.65;93224.06;5029207;28;20517;-85
2021/08/08 02:34:28;;;;;;;4.03;2.55;;;;;;;14.96;73.08;93234.13;5028910;28;20053;-85
2021/08/08 02:36:54;;;;;;;5.70;2.58;;;;;;;14.95;73.08;93240.31;5029816;28;20148;-84
2021/08/08 02:39:21;;;;;;;3.90;2.28;;;;;;;14.99;73.14;93241.38;5032961;28;20050;-84
2021/08/08 02:41:48;;;;;;;4.43;2.22;;;;;;;14.95;73.18;93242.91;5032382;28;20050;-85
2021/08/08 02:44:15;;;;;;;4.53;1.85;;;;;;;15.00;72.64;93242.94;5032757;28;20080;-84
2021/08/08 02:46:41;;;;;;;3.53;1.83;;;;;;;14.85;72.57;93227.22;5032443;28;20049;-85
2021/08/08 02:49:08;;;;;;;6.60;2.33;;;;;;;14.75;73.45;93226.03;5032527;28;20049;-84
2021/08/08 02:51:37;;;;;;;3.65;1.80;;;;;;;14.79;73.73;93244.44;5032712;28;20049;-84
2021/08/08 02:54:03;;;;;;;4.43;1.70;;;;;;;14.62;73.77;93223.75;5032673;28;20471;-84
2021/08/08 02:56:30;;;;;;;4.78;1.85;;;;;;;14.73;74.07;93246.16;5032070;28;20045;-84
2021/08/08 02:58:57;;;;;;;3.28;1.70;;;;;;;14.64;74.41;93247.56;5032578;28;20060;-84
2021/08/08 03:01:24;;;;;;;4.72;2.03;;;;;;;14.41;75.63;93238.91;5018939;28;20489;-84
2021/08/08 03:03:51;;;;;;;4.43;2.08;;;;;;;14.53;75.27;93262.09;5032390;28;20053;-84
2021/08/08 03:06:19;;;;;;;7.22;2.95;;;;;;;14.45;75.94;93262.47;5032458;28;20092;-84
2021/08/08 03:08:47;;;;;;;5.72;1.98;;;;;;;14.32;76.76;93248.84;5032049;28;20053;-84
2021/08/08 03:11:14;;;;;;;3.72;1.63;;;;;;;14.37;76.39;93256.69;5032715;28;20148;-84
2021/08/08 03:13:42;;;;;;;4.00;2.13;;;;;;;14.48;76.11;93256.88;5032083;28;20065;-84
2021/08/08 03:16:09;;;;;;;7.85;2.33;;;;;;;14.44;76.38;93253.94;5032292;28;20053;-84
2021/08/08 03:18:36;;;;;;;4.15;1.70;;;;;;;14.44;75.75;93246.19;5031922;28;20053;-84
2021/08/08 03:21:03;;;;;;;6.10;1.75;;;;;;;14.41;76.20;93244.06;5032372;28;20432;-84
2021/08/08 03:23:31;;;;;;;3.33;1.55;;;;;;;14.43;76.42;93247.19;5034891;28;20053;-84
2021/08/08 03:25:59;;;;;;;10.27;2.35;;;;;;;14.54;76.03;93253.34;5033273;28;20409;-84
2021/08/08 03:28:26;;;;;;;3.33;1.70;;;;;;;14.55;76.24;93260.06;5031817;28;20046;-85
2021/08/08 03:30:52;;;;;;;4.97;2.00;;;;;;;14.36;75.77;93225.91;5031491;28;20496;-84
2021/08/08 03:33:19;;;;;;;7.50;1.90;;;;;;;14.53;75.71;93264.69;5031676;28;20053;-84
2021/08/08 03:35:46;;;;;;;9.45;2.40;;;;;;;14.52;76.23;93263.09;5031788;28;20045;-83
2021/08/08 03:38:13;;;;;;;8.95;2.33;;;;;;;14.48;76.15;93260.22;5031419;28;20061;-83
2021/08/08 03:40:40;;;;;;;5.82;2.00;;;;;;;14.45;76.66;93258.09;5031838;28;20060;-83
2021/08/08 03:43:08;;;;;;;7.68;1.88;;;;;;;14.10;77.14;93199.59;5031628;28;20542;-85
2021/08/08 03:45:35;;;;;;;5.45;1.88;;;;;;;14.33;77.12;93245.22;5031685;28;20068;-85
2021/08/08 03:48:02;;;;;;;6.53;1.60;;;;;;;14.26;77.07;93231.69;5031323;28;20045;-84
2021/08/08 03:50:28;;;;;;;13.05;2.88;;;;;;;14.49;76.78;93258.41;5031327;28;20497;-84
2021/08/08 03:52:55;;;;;;;10.45;3.58;;;;;;;14.50;76.56;93255.63;5031496;28;20046;-84
2021/08/08 03:55:22;;;;;;;16.85;8.13;;;;;;;14.24;76.94;93216.41;5031400;28;20053;-85
2021/08/08 03:57:49;;;;;;;13.23;6.82;;;;;;;14.56;76.14;93259.06;5031171;28;20429;-84
2021/08/08 04:00:17;;;;;;;14.95;5.15;;;;;;;14.56;76.56;93264.22;5039739;28;20048;-84
2021/08/08 04:02:44;;;;;;;13.93;3.72;;;;;;;14.45;76.43;93245.19;5039901;28;20127;-83
2021/08/08 04:05:11;;;;;;;15.25;3.80;;;;;;;14.50;75.86;93247.06;5039271;28;20045;-83
2021/08/08 04:07:38;;;;;;;18.67;3.88;;;;;;;14.70;75.92;93268.09;5041506;28;20053;-84
2021/08/08 04:10:06;;;;;;;17.75;3.20;;;;;;;14.77;75.72;93270.53;5043357;28;20068;-84
2021/08/08 04:12:33;;;;;;;11.80;4.35;;;;;;;14.82;75.26;93278.38;5039247;28;20053;-84
2021/08/08 04:15:02;;;;;;;14.38;3.92;;;;;;;14.82;74.70;93267.25;5040827;28;20392;-85
2021/08/08 04:17:31;;;;;;;13.95;2.75;;;;;;;14.87;74.21;93269.94;5039003;28;20575;-83
2021/08/08 04:19:57;;;;;;;12.05;2.97;;;;;;;14.82;74.97;93270.63;5045356;28;20048;-85
2021/08/08 04:22:24;;;;;;;14.68;2.72;;;;;;;14.72;74.93;93252.31;5037573;28;20048;-85
2021/08/08 04:24:51;;;;;;;9.05;2.90;;;;;;;14.93;75.11;93286.31;5040581;28;20098;-84
2021/08/08 04:27:19;;;;;;;12.85;3.60;;;;;;;14.97;75.17;93290.00;5037738;28;20045;-82
2021/08/08 04:29:46;;;;;;;7.05;2.75;;;;;;;14.67;74.76;93249.66;5030703;28;20049;-84
2021/08/08 04:32:13;;;;;;;12.80;2.58;;;;;;;15.05;74.57;93291.41;5030851;28;20072;-86
2021/08/08 04:34:41;;;;;;;13.05;3.60;;;;;;;15.01;74.81;93285.94;5030592;28;20038;-86
2021/08/08 04:37:08;;;;;;;8.55;2.55;;;;;;;15.16;75.08;93294.94;5041251;28;20049;-85
2021/08/08 04:39:34;;;;;;;11.30;3.13;;;;;;;15.28;74.55;93297.44;5050162;28;20053;-85
2021/08/08 04:42:02;;;;;;;12.95;2.67;;;;;;;15.23;75.00;93274.88;5050428;28;20154;-84
2021/08/08 04:44:29;;;;;;;8.82;3.22;;;;;;;15.35;75.14;93293.69;5050027;28;20512;-85
2021/08/08 04:46:56;;;;;;;15.00;2.92;;;;;;;15.26;75.10;93269.22;5050119;28;20458;-84
2021/08/08 04:49:22;;;;;;;11.35;2.53;;;;;;;15.36;75.16;93287.47;5049889;28;20511;-84
2021/08/08 04:51:51;;;;;;;14.18;2.88;;;;;;;15.38;75.67;93273.50;5046377;28;20046;-84
2021/08/08 04:54:17;;;;;;;8.35;2.60;;;;;;;15.51;74.95;93288.72;5030252;28;20049;-84
2021/08/08 04:56:45;;;;;;;5.38;2.47;;;;;;;15.56;74.61;93288.75;5030361;28;20049;-84
2021/08/08 04:59:12;;;;;;;6.53;2.45;;;;;;;15.65;74.74;93290.97;5029445;28;20137;-84
2021/08/08 05:01:39;;;;;;;23.27;3.13;;;;;;;15.77;75.32;93294.22;5030139;28;20049;-84
2021/08/08 05:04:06;;;;;;;8.10;2.47;;;;;;;15.80;74.84;93298.94;5030205;28;20084;-84
2021/08/08 05:06:34;;;;;;;15.25;3.50;;;;;;;15.88;74.71;93289.97;5030128;28;20448;-83
2021/08/08 05:09:02;;;;;;;19.27;3.65;;;;;;;15.98;74.22;93297.88;5029987;28;20042;-86
2021/08/08 05:11:29;;;;;;;9.32;3.47;;;;;;;16.12;73.78;93293.09;5029774;28;20049;-86
2021/08/08 05:13:56;;;;;;;9.70;3.90;;;;;;;16.10;73.17;93278.84;5043302;28;20072;-85
2021/08/08 05:16:23;;;;;;;19.95;6.20;;;;;;;16.24;74.14;93285.22;5049801;28;20041;-85
2021/08/08 05:18:50;;;;;;;14.82;6.72;;;;;;;16.33;72.81;93288.16;5049929;28;20056;-84
2021/08/08 05:21:17;;;;;;;15.40;5.90;;;;;;;16.53;72.26;93297.94;5049567;28;20467;-88
2021/08/08 05:23:43;;;;;;;15.10;6.38;;;;;;;16.66;71.55;93301.97;5049625;28;20056;-89
2021/08/08 05:26:12;;;;;;;19.85;7.70;;;;;;;16.44;73.81;93257.94;5043669;28;20042;-88
2021/08/08 05:28:41;;;;;;;20.23;9.45;;;;;;;16.78;74.38;93306.22;5029759;28;20056;-88
2021/08/08 05:31:08;;;;;;;21.20;9.85;;;;;;;16.91;73.05;93307.63;5028682;28;20064;-87
2021/08/08 05:33:34;;;;;;;18.08;8.82;;;;;;;17.08;70.29;93302.38;5046906;28;20087;-87
2021/08/08 05:36:01;;;;;;;26.70;12.35;;;;;;;17.22;69.93;93300.91;5048731;28;21076;-87
2021/08/08 05:38:28;;;;;;;29.25;12.00;;;;;;;17.35;68.92;93304.88;5048734;28;20060;-88
2021/08/08 05:40:55;;;;;;;40.22;18.35;;;;;;;17.37;69.60;93289.06;5048957;28;20053;-88
2021/08/08 05:43:24;;;;;;;44.22;18.40;;;;;;;17.59;69.46;93291.53;5049657;28;20053;-87
2021/08/08 05:45:52;;;;;;;52.00;22.35;;;;;;;17.51;70.45;93263.44;5049425;28;20055;-87
2021/08/08 05:48:19;;;;;;;45.88;18.85;;;;;;;17.59;69.97;93270.75;5049684;28;20549;-86
2021/08/08 05:51:06;;;;;;;59.58;23.25;;;;;;;17.88;71.73;93293.75;5048841;28;20049;-88
2021/08/08 05:53:33;;;;;;;42.72;18.33;;;;;;;17.78;70.43;93291.13;5048757;28;20060;-87
2021/08/08 05:56:00;;;;;;;47.28;18.85;;;;;;;17.92;70.42;93296.66;5048843;28;20049;-88
2021/08/08 05:58:28;;;;;;;36.08;16.00;;;;;;;17.93;69.82;93279.22;5041794;28;20831;-86
2021/08/08 06:00:55;;;;;;;31.20;13.63;;;;;;;18.21;68.99;93295.47;5043391;28;20519;-87
2021/08/08 06:03:22;;;;;;;27.83;13.40;;;;;;;18.40;67.91;93294.00;5031808;28;20052;-86
2021/08/08 06:05:49;;;;;;;37.10;14.82;;;;;;;18.25;67.02;93242.72;5030496;28;20045;-87
2021/08/08 06:08:15;;;;;;;46.58;19.75;;;;;;;18.58;67.08;93257.34;5048830;28;20053;-87
2021/08/08 06:13:38;;;;;;;26.63;12.00;;;;;;;18.96;66.04;93295.13;5034710;28;20053;-87
2021/08/08 06:16:05;;;;;;;32.17;14.38;;;;;;;19.03;64.23;93234.19;5049637;28;20053;-87
2021/08/08 06:18:32;;;;;;;30.58;12.95;;;;;;;19.78;62.93;93303.13;5053342;28;20049;-86
2021/08/08 06:20:59;;;;;;;28.33;11.70;;;;;;;19.87;60.94;93266.88;5053309;28;20052;-88
2021/08/08 06:23:26;;;;;;;29.88;12.15;;;;;;;20.10;60.40;93281.16;5053568;28;20044;-87
2021/08/08 06:25:52;;;;;;;30.30;9.75;;;;;;;20.27;59.89;93280.81;5053414;28;20053;-86
2021/08/08 06:28:19;;;;;;;26.75;10.20;;;;;;;20.93;57.94;93296.38;5052660;28;20413;-88
2021/08/08 06:30:47;;;;;;;23.60;10.60;;;;;;;21.08;57.15;93294.72;5056300;28;20059;-85
2021/08/08 06:33:16;;;;;;;23.88;9.80;;;;;;;21.55;56.26;93291.69;5046397;28;20052;-86
2021/08/08 06:35:43;;;;;;;20.98;9.25;;;;;;;21.90;54.48;93289.81;5035423;28;20488;-84
2021/08/08 06:38:10;;;;;;;18.00;9.27;;;;;;;21.92;54.95;93290.31;5032503;28;20518;-86
2021/08/08 09:09:38;;;;;;;9.77;3.03;;;;;;;34.57;24.86;93252.25;5127014;27;20173;-84
2021/08/08 09:12:07;;;;;;;4.78;2.17;;;;;;;34.54;25.17;93257.53;5127022;28;20059;-89
2021/08/08 09:14:35;;;;;;;5.47;2.05;;;;;;;34.76;24.27;93255.94;5127039;27;20051;-89
2021/08/08 09:17:02;;;;;;;5.18;2.30;;;;;;;33.79;24.61;93267.50;5127458;28;20059;-89
2021/08/08 09:19:30;;;;;;;6.13;2.42;;;;;;;33.91;25.49;93218.59;5127485;27;20054;-90
2021/08/08 09:21:58;;;;;;;11.07;2.13;;;;;;;34.30;24.75;93219.53;5126062;28;20058;-89
2021/08/08 09:24:27;;;;;;;5.22;2.20;;;;;;;34.50;24.16;93204.16;5127159;27;20052;-88
2021/08/08 09:27:05;;;;;;;6.80;2.50;;;;;;;33.83;25.16;93264.91;5127000;27;20043;-89
2021/08/08 09:29:34;;;;;;;4.80;2.17;;;;;;;32.09;25.80;93260.44;5126286;27;20056;-87
2021/08/08 09:32:02;;;;;;;9.20;2.78;;;;;;;32.62;25.87;93230.03;5127203;28;20540;-87
2021/08/08 09:34:31;;;;;;;6.55;2.67;;;;;;;33.13;26.16;93219.63;5127229;28;20069;-88
2021/08/08 09:36:59;;;;;;;5.63;2.60;;;;;;;32.07;25.60;93230.78;5127239;27;20400;-87
2021/08/08 09:39:30;;;;;;;9.20;2.90;;;;;;;32.32;25.92;93262.44;5126955;27;20043;-89
2021/08/08 09:42:14;;;;;;;6.07;2.58;;;;;;;32.92;25.73;93258.72;5126491;28;20549;-92
2021/08/08 09:44:56;;;;;;;6.22;2.65;;;;;;;32.89;26.39;93195.59;5127092;28;20122;-92
2021/08/08 09:47:37;;;;;;;7.07;2.63;;;;;;;34.01;25.32;93273.16;5126392;28;20419;-89
2021/08/08 09:56:42;;;;;;;4.63;2.28;;;;;;;34.46;24.02;93262.00;5106602;27;20048;-88
2021/08/08 09:59:10;;;;;;;7.20;2.85;;;;;;;33.62;23.22;93199.50;5126607;27;20054;-89
2021/08/08 10:01:47;;;;;;;6.82;3.38;;;;;;;34.06;24.42;93181.53;5126567;27;20680;-93
2021/08/08 10:04:15;;;;;;;5.82;2.50;;;;;;;34.82;23.01;93251.81;5125930;27;20051;-90
2021/08/08 10:06:45;;;;;;;7.03;3.08;;;;;;;33.21;24.11;93202.63;5126891;27;20058;-90
2021/08/08 10:09:13;;;;;;;6.28;2.35;;;;;;;33.32;23.71;93259.47;5119875;27;20138;-87
2021/08/08 10:11:44;;;;;;;5.68;2.45;;;;;;;33.27;25.29;93246.47;5111786;28;20044;-90
2021/08/08 10:14:14;;;;;;;4.95;2.42;;;;;;;33.83;24.99;93252.34;5112495;28;20051;-91
2021/08/08 10:16:42;;;;;;;4.40;2.38;;;;;;;34.39;24.07;93249.38;5112065;28;20503;-90
2021/08/08 10:19:25;;;;;;;6.35;2.50;;;;;;;34.30;23.49;93148.31;5112448;28;20090;-93
2021/08/08 10:22:05;;;;;;;6.43;2.22;;;;;;;35.04;23.61;93150.63;5111437;28;20131;-92
2021/08/08 10:24:43;;;;;;;5.32;2.42;;;;;;;36.01;22.53;93239.94;5111622;28;20044;-91
2021/08/08 10:27:21;;;;;;;6.25;2.03;;;;;;;36.17;21.21;93218.28;5111522;28;20798;-92
2021/08/08 10:30:17;;;;;;;6.18;2.20;;;;;;;36.53;21.98;93231.09;5111553;28;20432;-92
2021/08/08 10:32:48;;;;;;;6.75;2.65;;;;;;;36.76;20.21;93234.28;5112553;28;20196;-91
2021/08/08 10:35:47;;;;;;;5.20;1.73;;;;;;;35.74;21.53;93128.69;5111237;28;20071;-93
2021/08/08 10:38:22;;;;;;;5.22;1.58;;;;;;;34.33;21.91;93146.84;5106915;28;20047;-92
2021/08/08 10:40:49;;;;;;;4.32;2.03;;;;;;;34.60;21.14;93238.22;5111505;28;20097;-91
2021/08/08 10:43:27;;;;;;;4.97;1.80;;;;;;;35.58;22.28;93236.56;5112466;28;20051;-91
2021/08/08 10:46:17;;;;;;;5.88;1.75;;;;;;;34.87;20.54;93182.13;5111654;28;20496;-90
2021/08/08 10:48:45;;;;;;;4.15;1.65;;;;;;;34.45;21.88;93242.59;5111741;27;20051;-88
2021/08/08 10:51:37;;;;;;;3.17;1.85;;;;;;;31.93;22.47;93119.66;5111981;28;20047;-93
2021/08/08 10:54:06;;;;;;;4.03;2.08;;;;;;;33.70;22.86;93224.38;5110953;28;20055;-91
2021/08/08 10:56:47;;;;;;;3.72;1.90;;;;;;;34.50;21.68;93234.25;5109914;28;20059;-92
2021/08/08 10:59:21;;;;;;;9.95;2.33;;;;;;;34.20;22.22;93167.63;5090896;28;20059;-93
2021/08/08 11:02:08;;;;;;;2.58;1.70;;;;;;;34.70;20.58;93190.69;5109167;28;20063;-90
2021/08/08 11:08:28;;;;;;;3.88;2.00;;;;;;;35.00;20.96;93125.81;5097808;28;20514;-93
2021/08/08 11:11:22;;;;;;;5.13;2.07;;;;;;;35.89;19.08;93184.88;5110320;28;20047;-95
2021/08/08 11:13:50;;;;;;;7.80;2.10;;;;;;;35.87;19.57;93165.78;5109447;28;20284;-90
2021/08/08 11:17:08;;;;;;;6.07;2.10;;;;;;;36.48;20.10;93184.06;5110572;28;20134;-93
2021/08/08 11:19:50;;;;;;;12.02;2.20;;;;;;;37.28;18.41;93214.53;5065879;27;20549;-89
2021/08/08 11:22:21;;;;;;;6.70;1.98;;;;;;;37.60;18.67;93212.28;5110690;28;20411;-88
2021/08/08 11:25:08;;;;;;;5.13;1.85;;;;;;;37.44;18.38;93165.19;5111050;28;20516;-93
2021/08/08 11:27:48;;;;;;;6.28;1.95;;;;;;;36.00;17.92;93100.19;5109976;28;20047;-94
2021/08/08 11:30:46;;;;;;;2.88;1.90;;;;;;;35.73;18.43;93097.78;5111733;28;20048;-96
2021/08/08 11:33:31;;;;;;;9.73;2.33;;;;;;;36.01;19.42;93093.72;5097003;28;20062;-93
2021/08/08 11:36:01;;;;;;;6.13;1.92;;;;;;;36.56;18.37;93102.69;5109095;28;20385;-94
2021/08/08 11:38:43;;;;;;;3.67;2.03;;;;;;;37.56;18.89;93196.16;5112494;28;20059;-88
2021/08/08 11:41:22;;;;;;;5.60;2.03;;;;;;;37.79;18.25;93203.06;5110397;27;20040;-92
2021/08/08 11:53:10;;;;;;;3.65;2.10;;;;;;;34.45;20.25;93199.13;5097992;28;20044;-94
2021/08/08 11:55:44;;;;;;;5.63;2.20;;;;;;;34.18;20.98;93191.19;5110792;28;20075;-92
2021/08/08 12:01:47;;;;;;;3.08;1.83;;;;;;;35.01;19.70;93114.78;4981510;28;20517;-95
2021/08/08 12:04:21;;;;;;;;;;;;;;;36.24;19.42;93191.63;5097866;28;20415;-91
2021/08/08 12:06:57;;;;;;;3.85;2.17;;;;;;;36.81;19.51;93189.53;5109609;28;19919;-90
2021/08/08 12:09:59;;;;;;;3.35;2.00;;;;;;;36.31;18.94;93151.53;5111504;28;20070;-93
2021/08/08 12:15:48;;;;;;;4.32;1.80;;;;;;;36.67;18.66;93142.09;5110827;28;20104;-94
2021/08/08 12:19:28;;;;;;;;;;;;;;;;;;;;;
2021/08/08 12:22:25;;;;;;;5.03;2.30;;;;;;;36.97;18.37;93173.91;5097842;28;20067;-95
2021/08/08 12:25:16;;;;;;;3.60;2.20;;;;;;;34.78;18.89;93089.03;5112153;28;20399;-95
2021/08/08 12:31:54;;;;;;;7.82;2.47;;;;;;;33.70;19.89;93077.88;5033680;28;20057;-94
2021/08/08 12:34:36;;;;;;;6.38;2.45;;;;;;;34.44;20.00;93179.72;5089896;28;20117;-95
2021/08/08 12:38:00;;;;;;;3.67;2.00;;;;;;;34.13;19.87;93178.94;5089811;28;20048;-96
2021/08/08 12:41:13;;;;;;;4.47;2.33;;;;;;;34.20;20.62;93181.69;5090205;28;20067;-95
2021/08/08 12:44:07;;;;;;;4.55;2.42;;;;;;;34.20;19.80;93063.66;5090081;28;20044;-94
2021/08/08 12:46:48;;;;;;;5.68;2.50;;;;;;;35.24;18.86;93156.56;5088402;28;20063;-92
2021/08/08 12:49:40;;;;;;;4.97;2.63;;;;;;;34.31;18.43;93125.06;5097350;28;20434;-96
2021/08/08 12:52:14;;;;;;;5.03;2.88;;;;;;;34.42;18.93;93181.97;5109171;28;20117;-95
2021/08/08 12:54:52;;;;;;;3.47;2.33;;;;;;;33.09;20.34;93089.13;5109627;28;20051;-93
2021/08/08 13:00:34;;;;;;;5.18;2.28;;;;;;;33.81;19.66;93134.72;5099464;28;20070;-93
2021/08/08 13:16:29;;;;;;;3.90;2.40;;;;;;;33.24;19.51;93065.41;5035075;28;20139;-93
2021/08/08 13:19:34;;;;;;;4.15;2.38;;;;;;;34.34;20.10;93164.34;5046483;28;20053;-96
2021/08/08 13:23:00;;;;;;;8.75;2.53;;;;;;;34.44;19.35;93161.06;5048132;28;20059;-96
2021/08/08 13:25:38;;;;;;;8.73;3.00;;;;;;;34.67;20.17;93104.16;4996211;28;20056;-94
2021/08/08 13:28:27;;;;;;;3.33;2.30;;;;;;;34.97;20.45;93055.25;5047016;28;20436;-95
2021/08/08 13:31:36;;;;;;;6.38;1.88;;;;;;;35.96;18.60;93118.88;5046346;28;20056;-95
2021/08/08 13:38:12;;;;;;;3.53;1.98;;;;;;;34.60;18.87;93158.19;5070875;28;20054;-96
2021/08/08 13:50:27;;;;;;;3.80;2.00;;;;;;;35.67;19.68;93142.00;5074200;28;20101;-96
2021/08/08 13:52:55;;;;;;;3.47;2.20;;;;;;;36.03;18.78;93136.88;5098421;28;20048;-88
2021/08/08 13:55:46;;;;;;;4.07;2.10;;;;;;;36.52;17.97;93147.41;5092568;28;20054;-94
2021/08/08 14:01:35;;;;;;;5.32;2.80;;;;;;;35.40;16.78;93126.91;5086209;28;20096;-92
2021/08/08 14:04:03;;;;;;;4.05;2.50;;;;;;;34.66;17.53;93150.63;5092302;28;20412;-93
2021/08/08 14:06:36;;;;;;;9.48;2.40;;;;;;;34.69;18.27;93045.09;5090880;28;20044;-93
2021/08/08 14:09:03;;;;;;;2.80;2.00;;;;;;;34.32;18.35;93151.38;5089890;28;20500;-91
2021/08/08 14:11:32;;;;;;;4.28;2.13;;;;;;;34.19;18.81;93088.78;5090955;28;20088;-93
2021/08/08 14:13:59;;;;;;;6.28;2.25;;;;;;;34.83;18.68;93119.94;5092422;28;20423;-91
2021/08/08 14:16:31;;;;;;;4.70;2.80;;;;;;;35.16;19.29;93078.31;5091739;28;20071;-94
2021/08/08 14:18:58;;;;;;;3.90;2.08;;;;;;;35.05;18.41;93147.59;5092071;28;20040;-93
2021/08/08 14:21:25;;;;;;;3.67;2.20;;;;;;;35.11;18.13;93123.25;5092116;28;20097;-91
2021/08/08 14:23:52;;;;;;;4.38;2.58;;;;;;;35.05;18.57;93139.59;5092278;28;20563;-93
2021/08/08 14:26:25;;;;;;;3.55;2.13;;;;;;;35.07;18.33;93109.09;5092215;28;20660;-94
2021/08/08 14:28:56;;;;;;;4.43;2.60;;;;;;;34.80;19.49;93050.53;5096533;28;20044;-92
2021/08/08 14:31:32;;;;;;;4.70;2.25;;;;;;;35.58;19.36;93099.56;5111766;28;20062;-92
2021/08/08 14:34:26;;;;;;;3.88;2.00;;;;;;;36.03;18.75;93106.69;5111377;28;20054;-94
2021/08/08 14:36:57;;;;;;;3.42;2.03;;;;;;;36.36;18.59;93108.38;5111238;28;20047;-93
2021/08/08 14:39:26;;;;;;;4.85;2.30;;;;;;;36.28;18.59;93057.94;5111413;28;20043;-93
2021/08/08 14:41:54;;;;;;;5.30;2.28;;;;;;;36.71;17.93;93100.84;5111278;28;20040;-92
2021/08/08 14:44:25;;;;;;;3.78;2.40;;;;;;;36.11;18.00;93041.44;5111838;27;20491;-94
2021/08/08 14:46:54;;;;;;;4.32;2.08;;;;;;;36.08;17.34;93034.94;5111784;28;20054;-93
2021/08/08 14:49:23;;;;;;;4.68;2.10;;;;;;;36.68;18.04;93098.94;5111301;28;20043;-95
2021/08/08 14:51:51;;;;;;;3.03;2.03;;;;;;;36.50;17.17;93096.19;5111322;28;20515;-91
2021/08/08 14:54:21;;;;;;;4.70;2.17;;;;;;;36.68;17.69;93082.88;5111612;28;20496;-93
2021/08/08 14:56:50;;;;;;;6.70;2.17;;;;;;;36.93;17.60;93106.25;5110756;28;20534;-93
2021/08/08 14:59:41;;;;;;;4.78;1.98;;;;;;;36.47;17.23;93040.78;5111262;28;20496;-95
2021/08/08 15:02:20;;;;;;;4.45;2.13;;;;;;;37.02;18.03;93111.22;5110424;28;20139;-94
2021/08/08 15:04:59;;;;;;;4.95;2.05;;;;;;;36.57;17.35;93037.34;5110778;28;20043;-95
2021/08/08 15:07:34;;;;;;;7.15;2.75;;;;;;;36.77;17.65;93053.84;5110757;28;20047;-93
2021/08/08 15:10:04;;;;;;;14.23;2.67;;;;;;;37.01;18.18;93075.63;5109939;28;20510;-94
2021/08/08 15:12:37;;;;;;;14.63;2.60;;;;;;;36.82;18.32;93039.31;5110537;28;20368;-94
2021/08/08 15:15:07;;;;;;;5.07;2.20;;;;;;;37.12;17.83;93081.00;5111264;28;20051;-92
2021/08/08 15:17:34;;;;;;;4.53;2.33;;;;;;;37.41;18.38;93118.50;5111042;28;20043;-92
2021/08/08 15:23:36;;;;;;;4.70;2.17;;;;;;;36.80;17.07;93048.84;5112162;28;20523;-94
2021/08/08 15:26:25;;;;;;;;;;;;;;;;;;;;;
2021/08/08 15:29:02;;;;;;;4.50;2.42;;;;;;;37.10;18.18;93111.97;5111761;28;20083;-93
2021/08/08 15:31:34;;;;;;;5.20;2.30;;;;;;;36.78;17.76;93078.66;5110644;28;20500;-93
2021/08/08 15:34:10;;;;;;;5.05;2.50;;;;;;;36.72;18.67;93067.59;5110104;28;20043;-93
2021/08/08 15:36:38;;;;;;;3.72;2.47;;;;;;;36.66;17.25;93116.50;5112474;28;20051;-91